Terminal Aerodrome Forecast
Issued by NWS

Home | Current Version | Previous Version | Text Only | Print | Product List | Glossary On
Versions: 1 2 3 4 5 6 7 8 9 10 11 12 13 14 15 16 17 18 19 20 21 22 23 24 25
000
FTUS45 KBOU 230027 AAA
TAFAPA
TAF AMD
KAPA 230027Z 2300/2324 24010KT P6SM FEW090 BKN160 BKN220
     FM230200 20013KT P6SM SCT120 BKN220
     FM230900 22010KT P6SM SCT100 BKN220
     FM231700 29014KT P6SM SCT080 BKN180
     FM232200 01012KT P6SM SCT070 OVC140=

USA.gov is the U.S. government's official web portal to all federal, state and local government web resources and services.